LMMLLICT

Guest
Details From LMML - La Valette Luqa
To LICT - TRAPANI BIRGI
Flight Number -
Tags generated
Created
Modified
Stats Distance 157 nm / 290 km
Max Altitude 10,900 ft / 3,322 m
Waypoints 3
Social Downloads 1
Likes 0
Share VATSIM

Download

Looking for another format? Having issues loading an existing format? Contact us
Advertisement - Login to hide

Notes

Basic altitude profile: - Ascent Rate: 2500ft/min - Ascent Speed: 250kts - Cruise Altitude: 250ft - Cruise Speed: 420kts - Descent Rate: 1500ft/min - Descent Speed: 250kts Options: - Use NATs: yes - Use PACOTS: yes - Use low airways: yes - Use high airways: yes

Route

LMML MABOX LICT

ID Type Via Altitude Latitude Longitude Leg Dist Tot Dist Heading (true) Name
O LMML APT - 0 ft / 0 m 35.84948˚ 14.48184˚ - 0 nm - La Valette Luqa
MABOX FIX - 10,900 ft / 3,322 m 37.16528˚ 13.19083˚ 100 nm 100 nm 322° / 321° -
O LICT APT - 0 ft / 0 m 37.91142˚ 12.48794˚ 55 nm 156 nm 323° / 323° TRAPANI BIRGI

Altitude Profile

Advertisement - Login to hide

LMML

Details ICAO LMML (MLA)
Name La Valette Luqa
Region Malta
Timezone Europe/Malta (UTC+1.0)
Stats Elevation 300 ft / 91 m (AMSL)
Location 35.849477° 14.481836°
Runways 2
Magnetic Variation 3.020° E

METAR

LMML 151215Z 24017KT CAVOK 18/11 Q1013 NOSIG

Decode

TAF

Not found

Departure Runways

ID Width Length Bearing (true) Bearing (mag) Surface Threshold Offset Overrun Length
14 197 ft / 60 m 11,635 ft / 3,546 m 134.83° 131.81° Asphalt 0 ft / 0 m 420 ft / 128 m
24 148 ft / 45 m 7,789 ft / 2,374 m 234.37° 231.35° Asphalt 410 ft / 125 m 0 ft / 0 m
32 197 ft / 60 m 11,635 ft / 3,546 m 314.85° 311.83° Asphalt 817 ft / 249 m 0 ft / 0 m
6 148 ft / 45 m 7,789 ft / 2,374 m 54.35° 51.33° Asphalt 400 ft / 122 m 0 ft / 0 m

LICT

Details ICAO LICT (TPS)
Name TRAPANI BIRGI
Region Italy
Timezone Europe/Rome (UTC+1.0)
Stats Elevation 24 ft / 7 m (AMSL)
Location 37.911417° 12.487937°
Runways 1
Magnetic Variation 2.836° E

METAR

LICT 151155Z 18018KT 9999 FEW020 17/12 Q1011 RMK FEW VIS MIN 9999 WIND THR13 18016KT BLU

Decode

TAF

Not found

Destination Runways

ID Width Length Bearing (true) Bearing (mag) Surface Threshold Offset Overrun Length
13 148 ft / 45 m 8,827 ft / 2,691 m 127.75° 124.91° Asphalt 0 ft / 0 m 1,171 ft / 357 m
31 148 ft / 45 m 8,827 ft / 2,691 m 307.76° 304.92° Asphalt 820 ft / 250 m 983 ft / 300 m

Approach Navaids

Runway Type Ident Frequency Range Bearing (true) Bearing (mag) Slope Elevation
31 Localiser TRA 110.95 MHz 18 nm / 33 km 307.75° 304.91° - 13 ft / 4 m (AMSL)
31 Glidescope TRA 110.95 MHz 10 nm / 19 km 307.75° 304.92° 3.00° 61 ft / 19 m (AMSL)
31 DME TRA 110.95 MHz 18 nm / 33 km - - - 7 ft / 2 m (AMSL)

Popular Alternatives